createdAt,value
2019-03-28T00:01:04.220Z,94.48
2019-03-28T00:03:35.399Z,94.70
2019-03-28T00:06:06.670Z,94.91
2019-03-28T00:08:37.860Z,95.09
2019-03-28T00:11:09.081Z,95.33
2019-03-28T00:13:40.306Z,95.63
2019-03-28T00:16:11.564Z,95.78
2019-03-28T00:18:42.794Z,95.84
2019-03-28T00:21:14.133Z,95.93
2019-03-28T00:23:57.795Z,95.97
2019-03-28T00:26:30.642Z,96.03
2019-03-28T00:29:02.675Z,96.04
2019-03-28T00:31:33.805Z,96.08
2019-03-28T00:34:05.078Z,96.13
2019-03-28T00:36:36.230Z,96.16
2019-03-28T00:39:08.785Z,96.24
2019-03-28T00:41:39.868Z,96.34
2019-03-28T00:44:10.994Z,96.44
2019-03-28T00:46:42.085Z,96.52
2019-03-28T00:49:13.361Z,96.58
2019-03-28T00:51:44.479Z,96.67
2019-03-28T00:54:15.760Z,96.75
2019-03-28T00:56:47.663Z,96.89
2019-03-28T00:59:19.158Z,96.93
2019-03-28T01:01:50.354Z,97.00
2019-03-28T01:04:21.498Z,96.98
2019-03-28T01:06:52.689Z,96.92
2019-03-28T01:09:23.904Z,97.00
2019-03-28T01:11:55.098Z,97.16
2019-03-28T01:14:26.221Z,97.31
2019-03-28T01:16:57.369Z,97.44
2019-03-28T01:19:29.240Z,97.42
2019-03-28T01:22:00.442Z,97.40
2019-03-28T01:24:31.718Z,97.37
2019-03-28T01:27:02.884Z,97.33
2019-03-28T01:29:33.978Z,97.42
2019-03-28T01:32:05.129Z,97.54
2019-03-28T01:34:36.338Z,97.65
2019-03-28T01:37:07.430Z,97.76
2019-03-28T01:39:38.549Z,97.81
2019-03-28T01:42:09.660Z,97.78
2019-03-28T01:44:40.848Z,97.78
2019-03-28T01:47:11.974Z,97.77
2019-03-28T01:49:43.167Z,97.79
2019-03-28T01:52:14.380Z,97.71
2019-03-28T01:54:45.764Z,97.73
2019-03-28T01:57:16.939Z,97.82
2019-03-28T01:59:48.134Z,97.80
2019-03-28T02:02:20.174Z,97.92
2019-03-28T02:04:52.296Z,98.20
2019-03-28T02:07:23.584Z,98.51
2019-03-28T02:09:54.850Z,98.79
2019-03-28T02:12:25.934Z,99.00
2019-03-28T02:14:57.250Z,99.18
2019-03-28T02:17:28.551Z,99.27
2019-03-28T02:19:59.764Z,99.31
2019-03-28T02:22:30.944Z,99.31
2019-03-28T02:25:02.159Z,99.36
2019-03-28T02:27:33.245Z,99.46
2019-03-28T02:30:04.983Z,99.52
2019-03-28T02:32:36.168Z,99.54
2019-03-28T02:35:07.881Z,99.58
2019-03-28T02:37:39.134Z,99.56
2019-03-28T02:40:10.550Z,99.54
2019-03-28T02:42:41.769Z,99.49
2019-03-28T02:45:13.120Z,99.39
2019-03-28T02:47:44.379Z,99.30
2019-03-28T02:50:15.965Z,99.35
2019-03-28T02:52:47.506Z,99.46
2019-03-28T02:55:18.869Z,99.57
2019-03-28T02:57:50.050Z,99.77
2019-03-28T03:00:21.649Z,99.91
2019-03-28T03:02:52.871Z,100.00
2019-03-28T03:05:24.241Z,100.00
2019-03-28T03:07:55.570Z,100.00
2019-03-28T03:10:26.803Z,100.00
2019-03-28T03:12:58.191Z,100.00
2019-03-28T03:15:30.101Z,100.00
2019-03-28T03:18:01.545Z,100.00
2019-03-28T03:20:32.737Z,100.00
2019-03-28T03:23:03.955Z,100.00
2019-03-28T03:25:35.228Z,100.00
2019-03-28T03:28:06.485Z,100.00
2019-03-28T03:30:40.019Z,100.00
2019-03-28T03:33:11.093Z,100.00
2019-03-28T03:35:42.310Z,100.00
2019-03-28T03:38:13.664Z,100.00
2019-03-28T03:40:44.804Z,100.00
2019-03-28T03:43:15.990Z,100.00
2019-03-28T03:45:47.155Z,100.00
2019-03-28T03:48:18.290Z,100.00
2019-03-28T03:50:49.453Z,100.00
2019-03-28T03:53:20.760Z,100.00
2019-03-28T03:55:51.858Z,100.00
2019-03-28T03:58:23.145Z,100.00
2019-03-28T04:00:54.430Z,100.00
2019-03-28T04:03:25.639Z,100.00
2019-03-28T04:05:56.818Z,100.00
2019-03-28T04:08:28.915Z,100.00
2019-03-28T04:11:00.164Z,100.00
2019-03-28T04:13:31.420Z,100.00
2019-03-28T04:16:03.865Z,100.00
2019-03-28T04:18:35.319Z,100.00
2019-03-28T04:21:06.582Z,100.00
2019-03-28T04:23:37.695Z,100.00
2019-03-28T04:26:09.035Z,100.00
2019-03-28T04:28:40.229Z,100.00
2019-03-28T04:31:11.495Z,100.00
2019-03-28T04:33:42.657Z,100.00
2019-03-28T04:36:14.533Z,100.00
2019-03-28T04:38:46.041Z,100.00
2019-03-28T04:41:17.370Z,100.00
2019-03-28T04:43:48.600Z,100.00
2019-03-28T04:46:19.934Z,100.00
2019-03-28T04:48:51.073Z,100.00
2019-03-28T04:51:22.416Z,100.00
2019-03-28T04:53:56.191Z,100.00
2019-03-28T04:56:27.040Z,100.00
2019-03-28T04:58:58.442Z,100.00
2019-03-28T05:01:29.869Z,100.00
2019-03-28T05:04:01.401Z,100.00
2019-03-28T05:06:32.810Z,100.00
2019-03-28T05:09:04.739Z,100.00
2019-03-28T05:11:36.559Z,100.00
2019-03-28T05:14:07.914Z,100.00
2019-03-28T05:16:39.313Z,100.00
2019-03-28T05:19:10.676Z,100.00
2019-03-28T05:21:41.875Z,100.00
2019-03-28T05:24:13.181Z,100.00
2019-03-28T05:26:44.320Z,100.00
2019-03-28T05:29:15.768Z,100.00
2019-03-28T05:31:47.069Z,100.00
2019-03-28T05:34:18.404Z,100.00
2019-03-28T05:36:52.114Z,100.00
2019-03-28T05:39:23.025Z,100.00
2019-03-28T05:41:56.229Z,100.00
2019-03-28T05:44:27.555Z,100.00
2019-03-28T05:46:58.975Z,100.00
2019-03-28T05:49:30.712Z,100.00
2019-03-28T05:52:02.156Z,100.00
2019-03-28T05:54:33.639Z,100.00
2019-03-28T05:57:04.824Z,100.00
2019-03-28T05:59:36.048Z,100.00
2019-03-28T06:02:07.379Z,100.00
2019-03-28T06:04:39.063Z,100.00
2019-03-28T06:07:10.974Z,100.00
2019-03-28T06:09:45.614Z,100.00
2019-03-28T06:12:19.049Z,100.00
2019-03-28T06:14:50.304Z,100.00
2019-03-28T06:17:21.834Z,100.00
2019-03-28T06:19:53.194Z,100.00
2019-03-28T06:22:24.490Z,100.00
2019-03-28T06:24:56.367Z,100.00
2019-03-28T06:27:27.594Z,100.00
2019-03-28T06:30:01.907Z,100.00
2019-03-28T06:32:42.240Z,100.00
2019-03-28T06:35:05.110Z,100.00
2019-03-28T06:37:36.564Z,100.00
2019-03-28T06:40:09.669Z,100.00
2019-03-28T06:42:40.915Z,100.00
2019-03-28T06:45:12.498Z,100.00
2019-03-28T06:47:43.686Z,100.00
2019-03-28T06:50:15.344Z,100.00
2019-03-28T06:52:46.739Z,100.00
2019-03-28T06:55:18.190Z,100.00
2019-03-28T06:57:49.324Z,100.00
2019-03-28T07:00:21.715Z,100.00
2019-03-28T07:02:53.024Z,100.00
2019-03-28T07:05:24.438Z,100.00
2019-03-28T07:07:55.764Z,100.00
2019-03-28T07:10:27.192Z,100.00
2019-03-28T07:12:58.590Z,100.00
2019-03-28T07:15:29.873Z,100.00
2019-03-28T07:18:01.154Z,100.00
2019-03-28T07:20:32.403Z,100.00
2019-03-28T07:23:03.780Z,100.00
2019-03-28T07:25:34.935Z,99.72
2019-03-28T07:28:06.638Z,99.64
2019-03-28T07:30:38.034Z,99.62
2019-03-28T07:33:09.398Z,99.55
2019-03-28T07:35:40.765Z,99.63
2019-03-28T07:38:11.969Z,100.00
2019-03-28T07:40:43.298Z,100.00
2019-03-28T07:43:14.697Z,100.00
2019-03-28T07:45:46.004Z,99.47
2019-03-28T07:48:17.278Z,98.55
2019-03-28T07:50:48.708Z,97.69
2019-03-28T07:53:21.397Z,97.67
2019-03-28T07:55:52.894Z,97.24
2019-03-28T07:58:24.163Z,96.94
2019-03-28T08:00:55.729Z,96.99
2019-03-28T08:03:27.696Z,96.99
2019-03-28T08:05:59.121Z,97.37
2019-03-28T08:08:38.648Z,97.76
2019-03-28T08:11:03.403Z,97.19
2019-03-28T08:13:34.755Z,96.09
2019-03-28T08:16:06.134Z,95.54
2019-03-28T08:18:37.384Z,94.62
2019-03-28T08:21:08.746Z,94.35
2019-03-28T08:23:40.054Z,93.27
2019-03-28T08:26:11.673Z,93.17
2019-03-28T08:28:43.027Z,92.61
2019-03-28T08:31:14.930Z,91.77
2019-03-28T08:33:47.394Z,86.11
2019-03-28T08:36:18.985Z,83.74
2019-03-28T08:38:53.168Z,83.02
2019-03-28T08:41:24.732Z,80.38
2019-03-28T08:43:55.972Z,79.13
2019-03-28T08:46:27.325Z,80.17
2019-03-28T08:48:58.504Z,78.85
2019-03-28T08:51:29.715Z,78.84
2019-03-28T08:54:00.851Z,79.02
2019-03-28T08:56:32.107Z,80.32
2019-03-28T08:59:03.251Z,81.02
2019-03-28T09:01:34.539Z,79.83
2019-03-28T09:04:05.864Z,79.29
2019-03-28T09:06:37.222Z,79.32
2019-03-28T09:09:11.445Z,69.14
2019-03-28T09:11:42.602Z,68.56
2019-03-28T09:14:13.820Z,69.12
2019-03-28T09:16:45.099Z,67.52
2019-03-28T09:19:16.399Z,71.30
2019-03-28T09:21:47.695Z,72.84
2019-03-28T09:24:18.925Z,73.32
2019-03-28T09:26:50.115Z,74.56
2019-03-28T09:29:21.711Z,74.22
2019-03-28T09:31:53.301Z,74.49
2019-03-28T09:34:24.671Z,71.81
2019-03-28T09:36:55.759Z,75.62
2019-03-28T09:39:26.979Z,72.60
2019-03-28T09:41:58.332Z,71.00
2019-03-28T09:44:29.515Z,70.86
2019-03-28T09:47:00.885Z,70.16
2019-03-28T09:49:32.172Z,66.11
2019-03-28T09:52:03.820Z,62.34
2019-03-28T09:54:35.604Z,62.09
2019-03-28T09:57:06.917Z,61.47
2019-03-28T09:59:38.136Z,65.14
2019-03-28T10:02:09.532Z,68.57
2019-03-28T10:04:40.812Z,68.73
2019-03-28T10:07:12.152Z,68.95
2019-03-28T10:09:43.782Z,72.10
2019-03-28T10:12:15.099Z,70.62
2019-03-28T10:14:46.459Z,68.23
2019-03-28T10:17:17.723Z,64.79
2019-03-28T10:19:48.977Z,63.70
2019-03-28T10:22:22.362Z,61.35
2019-03-28T10:24:53.024Z,61.96
2019-03-28T10:27:24.537Z,59.25
2019-03-28T10:29:55.961Z,57.30
2019-03-28T10:32:27.183Z,54.94
2019-03-28T10:34:58.441Z,53.53
2019-03-28T10:37:29.721Z,59.15
2019-03-28T10:40:01.088Z,57.02
2019-03-28T10:42:32.430Z,58.75
2019-03-28T10:45:03.717Z,54.79
2019-03-28T10:47:34.919Z,57.86
2019-03-28T10:50:07.042Z,59.25
2019-03-28T10:52:38.212Z,58.22
2019-03-28T10:55:09.719Z,61.94
2019-03-28T10:57:41.184Z,55.95
2019-03-28T11:00:24.042Z,54.68
2019-03-28T11:02:47.080Z,54.54
2019-03-28T11:05:18.652Z,54.13
2019-03-28T11:07:50.499Z,57.67
2019-03-28T11:10:22.103Z,59.30
2019-03-28T11:12:53.319Z,60.37
2019-03-28T11:15:24.731Z,63.27
2019-03-28T11:17:56.008Z,62.87
2019-03-28T11:20:27.304Z,66.13
2019-03-28T11:22:58.655Z,68.23
2019-03-28T11:25:30.009Z,66.78
2019-03-28T11:28:01.208Z,67.17
2019-03-28T11:30:32.775Z,63.26
2019-03-28T11:33:06.450Z,63.95
2019-03-28T11:35:37.117Z,67.68
2019-03-28T11:38:09.753Z,68.18
2019-03-28T11:40:42.880Z,71.12
2019-03-28T11:43:14.228Z,70.89
2019-03-28T11:45:45.657Z,70.83
2019-03-28T11:48:21.305Z,69.68
2019-03-28T11:50:52.676Z,66.93
2019-03-28T11:53:23.848Z,68.03
2019-03-28T11:55:55.037Z,67.04
2019-03-28T11:58:26.332Z,65.76
2019-03-28T12:00:57.516Z,65.08
2019-03-28T12:03:28.609Z,65.95
2019-03-28T12:05:59.721Z,64.41
2019-03-28T12:08:31.341Z,63.97
2019-03-28T12:11:02.657Z,64.19
2019-03-28T12:13:44.091Z,64.71
2019-03-28T12:16:07.087Z,61.86
2019-03-28T12:18:38.481Z,65.02
2019-03-28T12:21:09.800Z,64.71
2019-03-28T12:23:41.042Z,65.48
2019-03-28T12:26:12.243Z,67.31
2019-03-28T12:28:43.506Z,68.03
2019-03-28T12:31:14.740Z,66.23
2019-03-28T12:33:46.034Z,66.52
2019-03-28T12:36:17.230Z,67.68
2019-03-28T12:38:48.469Z,67.80
2019-03-28T12:41:19.600Z,66.39
2019-03-28T12:43:51.131Z,66.60
2019-03-28T12:46:25.491Z,67.72
2019-03-28T12:48:55.290Z,66.06
2019-03-28T12:51:26.627Z,66.23
2019-03-28T12:53:58.053Z,65.47
2019-03-28T12:56:41.554Z,65.42
2019-03-28T12:59:12.838Z,64.91
2019-03-28T13:01:43.966Z,63.74
2019-03-28T13:04:15.330Z,64.67
2019-03-28T13:06:46.455Z,63.70
2019-03-28T13:09:17.950Z,64.60
2019-03-28T13:11:49.227Z,62.11
2019-03-28T13:14:21.473Z,62.84
2019-03-28T13:16:53.130Z,62.59
2019-03-28T13:19:24.337Z,60.92
2019-03-28T13:21:55.526Z,60.21
2019-03-28T13:24:27.014Z,59.37
2019-03-28T13:26:58.594Z,59.39
2019-03-28T13:29:29.718Z,59.36
2019-03-28T13:32:00.935Z,61.92
2019-03-28T13:34:32.203Z,58.69
2019-03-28T13:37:03.404Z,61.47
2019-03-28T13:39:34.599Z,60.41
2019-03-28T13:42:05.944Z,60.39
2019-03-28T13:44:37.188Z,60.83
2019-03-28T13:47:08.546Z,58.82
2019-03-28T13:49:40.245Z,58.78
2019-03-28T13:52:11.484Z,60.91
2019-03-28T13:54:42.665Z,60.36
2019-03-28T13:57:13.815Z,59.63
2019-03-28T13:59:45.029Z,59.94
2019-03-28T14:02:16.563Z,61.47
2019-03-28T14:04:47.891Z,61.82
2019-03-28T14:07:19.366Z,62.32
2019-03-28T14:09:50.602Z,62.71
2019-03-28T14:12:23.417Z,62.40
2019-03-28T14:14:54.839Z,61.21
2019-03-28T14:17:26.050Z,61.73
2019-03-28T14:19:57.196Z,62.18
2019-03-28T14:22:28.324Z,60.73
2019-03-28T14:24:59.740Z,62.68
2019-03-28T14:27:30.866Z,62.25
2019-03-28T14:30:03.210Z,61.17
2019-03-28T14:32:34.518Z,61.68
2019-03-28T14:35:07.205Z,60.91
2019-03-28T14:37:40.722Z,57.81
2019-03-28T14:40:13.010Z,57.11
2019-03-28T14:42:44.210Z,56.63
2019-03-28T14:45:15.899Z,56.53
2019-03-28T14:47:48.319Z,57.14
2019-03-28T14:50:40.150Z,58.24
2019-03-28T14:53:11.508Z,58.82
2019-03-28T14:55:42.894Z,57.62
2019-03-28T14:58:14.151Z,57.14
2019-03-28T15:00:51.684Z,57.77
2019-03-28T15:03:27.436Z,58.83
2019-03-28T15:05:56.237Z,60.51
2019-03-28T15:08:27.466Z,61.96
2019-03-28T15:10:58.683Z,62.07
2019-03-28T15:13:31.407Z,62.06
2019-03-28T15:16:02.960Z,61.91
2019-03-28T15:18:34.370Z,62.44
2019-03-28T15:21:05.897Z,63.80
2019-03-28T15:23:37.152Z,62.44
2019-03-28T15:26:08.616Z,61.75
2019-03-28T15:28:39.958Z,63.48
2019-03-28T15:31:11.305Z,62.39
2019-03-28T15:33:42.574Z,62.09
2019-03-28T15:36:14.912Z,60.82
2019-03-28T15:38:46.379Z,58.92
2019-03-28T15:41:17.738Z,60.91
2019-03-28T15:43:49.094Z,61.55
2019-03-28T15:46:20.570Z,63.34
2019-03-28T15:48:51.830Z,64.12
2019-03-28T15:51:23.211Z,64.94
2019-03-28T15:53:54.415Z,64.03
2019-03-28T15:56:25.760Z,64.98
2019-03-28T15:58:57.008Z,64.55
2019-03-28T16:01:28.500Z,64.86
2019-03-28T16:03:59.965Z,65.34
2019-03-28T16:06:31.411Z,64.50
2019-03-28T16:09:02.702Z,66.61
2019-03-28T16:11:34.044Z,64.26
2019-03-28T16:14:05.386Z,64.76
2019-03-28T16:16:36.743Z,65.82
2019-03-28T16:19:08.103Z,64.67
2019-03-28T16:21:39.267Z,64.05
2019-03-28T16:24:12.959Z,65.07
2019-03-28T16:26:44.586Z,64.72
2019-03-28T16:29:15.976Z,64.13
2019-03-28T16:31:47.239Z,64.65
2019-03-28T16:34:18.751Z,65.88
2019-03-28T16:36:50.188Z,66.43
2019-03-28T16:39:21.560Z,66.91
2019-03-28T16:41:54.543Z,67.73
2019-03-28T16:44:25.785Z,68.52
2019-03-28T16:46:57.261Z,69.83
2019-03-28T16:49:28.558Z,70.07
2019-03-28T16:51:59.788Z,70.91
2019-03-28T16:54:31.127Z,70.97
2019-03-28T16:57:02.518Z,71.13
2019-03-28T16:59:33.834Z,71.89
2019-03-28T17:02:05.519Z,71.97
2019-03-28T17:04:36.794Z,72.76
2019-03-28T17:07:10.008Z,72.95
2019-03-28T17:09:42.921Z,73.88
2019-03-28T17:12:15.617Z,74.55
2019-03-28T17:14:47.466Z,74.75
2019-03-28T17:17:22.424Z,75.50
2019-03-28T17:19:53.724Z,76.43
2019-03-28T17:22:26.397Z,77.16
2019-03-28T17:25:00.748Z,77.52
2019-03-28T17:27:35.677Z,78.06
2019-03-28T17:30:09.131Z,78.06
2019-03-28T17:32:41.451Z,78.61
2019-03-28T17:35:14.383Z,79.26
2019-03-28T17:37:51.428Z,79.38
2019-03-28T17:40:26.079Z,79.64
2019-03-28T17:42:59.570Z,79.75
2019-03-28T17:45:32.661Z,79.91
2019-03-28T17:48:07.444Z,80.19
2019-03-28T17:50:42.143Z,80.05
2019-03-28T17:53:17.937Z,80.37
2019-03-28T17:55:53.915Z,80.30
2019-03-28T17:58:34.714Z,80.21
2019-03-28T18:01:09.844Z,80.30
2019-03-28T18:03:40.954Z,80.49
2019-03-28T18:06:16.307Z,80.51
2019-03-28T18:08:48.990Z,80.48
2019-03-28T18:11:22.684Z,80.73
2019-03-28T18:13:54.102Z,80.94
2019-03-28T18:16:26.863Z,81.02
2019-03-28T18:18:58.228Z,81.23
2019-03-28T18:21:34.324Z,81.74
2019-03-28T18:24:06.940Z,82.04
2019-03-28T18:26:47.231Z,81.96
2019-03-28T18:29:21.754Z,83.25
2019-03-28T18:31:58.608Z,83.80
2019-03-28T18:34:34.209Z,83.96
2019-03-28T18:37:15.343Z,83.31
2019-03-28T18:39:53.579Z,82.89
2019-03-28T18:42:24.819Z,80.97
2019-03-28T18:44:57.352Z,79.45
2019-03-28T18:47:31.471Z,79.20
2019-03-28T18:50:04.010Z,79.13
2019-03-28T18:52:44.518Z,79.22
2019-03-28T18:55:20.637Z,78.63
2019-03-28T18:57:51.360Z,78.47
2019-03-28T19:00:23.294Z,78.40
2019-03-28T19:02:55.774Z,78.17
2019-03-28T19:05:30.268Z,78.27
2019-03-28T19:08:04.768Z,78.63
2019-03-28T19:10:43.054Z,79.26
2019-03-28T19:13:29.118Z,80.55
2019-03-28T19:16:03.941Z,79.85
2019-03-28T19:18:37.514Z,79.29
2019-03-28T19:21:09.934Z,79.28
2019-03-28T19:23:41.637Z,79.43
2019-03-28T19:26:16.393Z,79.85
2019-03-28T19:28:49.778Z,80.22
2019-03-28T19:31:21.699Z,80.65
2019-03-28T19:33:58.527Z,80.40
2019-03-28T19:36:30.153Z,80.42
2019-03-28T19:39:04.533Z,80.33
2019-03-28T19:41:35.993Z,80.75
2019-03-28T19:44:12.699Z,81.33
2019-03-28T19:46:47.141Z,81.20
2019-03-28T19:49:23.799Z,81.39
2019-03-28T19:52:00.126Z,81.72
2019-03-28T19:54:33.478Z,81.60
2019-03-28T19:57:13.525Z,81.32
2019-03-28T19:59:46.313Z,81.33
2019-03-28T20:02:17.799Z,81.34
2019-03-28T20:04:50.374Z,81.56
2019-03-28T20:07:24.624Z,81.75
2019-03-28T20:09:57.622Z,82.09
2019-03-28T20:12:36.964Z,82.23
2019-03-28T20:15:10.286Z,81.92
2019-03-28T20:17:47.762Z,82.21
2019-03-28T20:20:24.340Z,82.35
2019-03-28T20:22:58.102Z,82.48
2019-03-28T20:25:33.649Z,82.25
2019-03-28T20:28:09.305Z,82.00
2019-03-28T20:30:41.962Z,81.34
2019-03-28T20:33:13.540Z,80.31
2019-03-28T20:36:00.551Z,79.58
2019-03-28T20:38:21.179Z,78.67
2019-03-28T20:40:52.783Z,78.46
2019-03-28T20:43:27.085Z,78.39
2019-03-28T20:45:59.603Z,78.52
2019-03-28T20:48:33.414Z,80.28
2019-03-28T20:51:10.100Z,80.64
2019-03-28T20:53:46.862Z,80.86
2019-03-28T20:56:19.859Z,82.73
2019-03-28T20:58:52.703Z,82.18
2019-03-28T21:01:26.550Z,81.46
2019-03-28T21:03:58.997Z,80.29
2019-03-28T21:06:30.284Z,79.62
2019-03-28T21:09:04.560Z,80.04
2019-03-28T21:11:39.448Z,83.09
2019-03-28T21:14:12.988Z,84.34
2019-03-28T21:16:44.369Z,83.71
2019-03-28T21:19:15.817Z,82.94
2019-03-28T21:21:48.327Z,81.64
2019-03-28T21:24:19.775Z,81.32
2019-03-28T21:26:50.914Z,81.18
2019-03-28T21:29:22.004Z,80.82
2019-03-28T21:31:53.209Z,80.17
2019-03-28T21:34:24.494Z,79.79
2019-03-28T21:36:55.580Z,79.29
2019-03-28T21:39:26.778Z,78.60
2019-03-28T21:41:57.899Z,78.29
2019-03-28T21:44:29.178Z,77.60
2019-03-28T21:47:00.450Z,77.37
2019-03-28T21:49:31.706Z,77.02
2019-03-28T21:52:02.873Z,76.61
2019-03-28T21:54:33.977Z,76.23
2019-03-28T21:57:05.430Z,76.14
2019-03-28T21:59:36.689Z,76.07
2019-03-28T22:02:07.923Z,76.56
2019-03-28T22:04:39.147Z,78.31
2019-03-28T22:07:11.114Z,81.07
2019-03-28T22:09:42.364Z,81.86
2019-03-28T22:12:15.110Z,82.29
2019-03-28T22:14:48.130Z,83.28
2019-03-28T22:17:19.250Z,83.94
2019-03-28T22:19:51.671Z,84.66
2019-03-28T22:22:23.105Z,84.51
2019-03-28T22:24:54.243Z,84.60
2019-03-28T22:27:25.350Z,84.64
2019-03-28T22:29:56.675Z,85.04
2019-03-28T22:32:27.878Z,84.98
2019-03-28T22:34:59.841Z,86.07
2019-03-28T22:37:31.015Z,86.90
2019-03-28T22:40:02.217Z,85.52
2019-03-28T22:42:33.469Z,84.33
2019-03-28T22:45:05.474Z,83.54
2019-03-28T22:47:36.564Z,83.34
2019-03-28T22:50:09.071Z,82.28
2019-03-28T22:52:40.176Z,81.68
2019-03-28T22:55:12.327Z,81.77
2019-03-28T22:57:43.706Z,81.62
2019-03-28T23:00:15.921Z,81.97
2019-03-28T23:02:47.182Z,83.26
2019-03-28T23:05:19.465Z,84.33
2019-03-28T23:07:50.754Z,86.06
2019-03-28T23:10:22.155Z,86.59
2019-03-28T23:12:53.449Z,85.46
2019-03-28T23:15:24.864Z,86.43
2019-03-28T23:17:56.018Z,87.97
2019-03-28T23:20:27.396Z,87.15
2019-03-28T23:22:59.808Z,87.48
2019-03-28T23:25:31.199Z,87.03
2019-03-28T23:28:02.499Z,87.82
2019-03-28T23:30:33.696Z,88.14
2019-03-28T23:33:05.288Z,88.91
2019-03-28T23:35:37.024Z,88.53
2019-03-28T23:38:08.336Z,89.06
2019-03-28T23:40:39.534Z,88.47
2019-03-28T23:43:11.064Z,89.21
2019-03-28T23:45:42.384Z,89.58
2019-03-28T23:48:13.614Z,90.13
2019-03-28T23:50:44.889Z,90.35
2019-03-28T23:53:16.118Z,90.42
2019-03-28T23:55:47.404Z,90.50
2019-03-28T23:58:18.650Z,90.38
